createdAt,value
2023-01-08T00:01:34.641Z,12.33
2023-01-08T00:04:04.257Z,12.33
2023-01-08T00:06:34.802Z,13.00
2023-01-08T00:09:04.481Z,13.10
2023-01-08T00:11:32.665Z,12.73
2023-01-08T00:14:00.874Z,12.70
2023-01-08T00:16:29.272Z,12.93
2023-01-08T00:18:57.415Z,11.93
2023-01-08T00:21:27.038Z,15.63
2023-01-08T00:23:55.184Z,15.90
2023-01-08T00:26:23.318Z,13.83
2023-01-08T00:28:53.221Z,12.87
2023-01-08T00:31:21.421Z,13.30
2023-01-08T00:33:49.596Z,13.57
2023-01-08T00:36:21.133Z,12.13
2023-01-08T00:38:50.594Z,12.50
2023-01-08T00:41:19.561Z,12.30
2023-01-08T00:43:47.767Z,12.40
2023-01-08T00:46:15.989Z,14.73
2023-01-08T00:48:44.149Z,13.83
2023-01-08T00:51:15.016Z,12.77
2023-01-08T00:53:43.149Z,11.40
2023-01-08T00:56:13.078Z,11.03
2023-01-08T00:58:41.256Z,12.20
2023-01-08T01:01:14.893Z,12.70
2023-01-08T01:03:44.182Z,10.03
2023-01-08T01:06:14.936Z,9.83
2023-01-08T01:08:44.269Z,10.40
2023-01-08T01:11:21.992Z,13.80
2023-01-08T01:13:50.909Z,12.57
2023-01-08T01:16:19.705Z,14.83
2023-01-08T01:18:48.030Z,12.57
2023-01-08T01:21:24.170Z,11.10
2023-01-08T01:23:55.895Z,13.30
2023-01-08T01:26:26.764Z,13.53
2023-01-08T01:28:57.450Z,12.20
2023-01-08T01:31:27.728Z,13.60
2023-01-08T01:33:56.267Z,12.70
2023-01-08T01:36:26.880Z,13.23
2023-01-08T01:38:58.291Z,12.47
2023-01-08T01:41:31.694Z,11.43
2023-01-08T01:44:02.167Z,13.13
2023-01-08T01:46:39.570Z,10.47
2023-01-08T01:49:12.165Z,14.13
2023-01-08T01:51:46.872Z,12.40
2023-01-08T01:54:16.134Z,13.33
2023-01-08T01:56:47.636Z,15.73
2023-01-08T01:59:16.227Z,14.00
2023-01-08T02:01:45.276Z,14.37
2023-01-08T02:04:14.963Z,15.17
2023-01-08T02:06:55.247Z,15.93
2023-01-08T02:09:37.616Z,15.53
2023-01-08T02:12:18.590Z,15.27
2023-01-08T02:15:06.264Z,13.63
2023-01-08T02:17:43.161Z,13.07
2023-01-08T02:20:18.101Z,19.07
2023-01-08T02:23:27.489Z,17.10
2023-01-08T02:26:14.574Z,14.33
2023-01-08T02:28:49.729Z,15.77
2023-01-08T02:31:21.187Z,18.03
2023-01-08T02:33:49.441Z,18.17
2023-01-08T02:36:42.318Z,19.63
2023-01-08T02:39:43.827Z,18.07
2023-01-08T02:42:25.345Z,16.10
2023-01-08T02:45:01.501Z,16.03
2023-01-08T02:47:36.324Z,14.10
2023-01-08T02:50:22.380Z,13.53
2023-01-08T02:53:01.441Z,13.37
2023-01-08T02:55:34.239Z,12.03
2023-01-08T02:58:05.308Z,14.73
2023-01-08T03:00:34.844Z,13.20
2023-01-08T03:03:12.498Z,13.60
2023-01-08T03:05:44.703Z,15.83
2023-01-08T03:08:13.897Z,14.30
2023-01-08T03:10:49.655Z,14.50
2023-01-08T03:13:27.790Z,13.97
2023-01-08T03:16:05.359Z,10.83
2023-01-08T03:18:45.259Z,14.40
2023-01-08T03:21:14.963Z,14.37
2023-01-08T03:23:44.568Z,13.50
2023-01-08T03:26:18.709Z,12.07
2023-01-08T03:28:54.394Z,14.10
2023-01-08T03:31:25.958Z,13.77
2023-01-08T03:33:55.418Z,14.97
2023-01-08T03:36:28.788Z,16.30
2023-01-08T03:39:06.247Z,11.73
2023-01-08T03:41:37.209Z,15.03
2023-01-08T03:44:07.257Z,14.13
2023-01-08T03:46:41.828Z,18.20
2023-01-08T03:49:11.343Z,18.10
2023-01-08T03:51:43.439Z,13.77
2023-01-08T03:54:16.048Z,18.67
2023-01-08T03:56:44.707Z,16.60
2023-01-08T03:59:16.429Z,13.33
2023-01-08T04:01:45.135Z,14.67
2023-01-08T04:04:13.629Z,13.63
2023-01-08T04:06:41.906Z,15.50
2023-01-08T04:09:10.296Z,13.47
2023-01-08T04:11:38.444Z,14.83
2023-01-08T04:14:06.669Z,15.43
2023-01-08T04:16:36.114Z,16.13
2023-01-08T04:19:04.394Z,15.83
2023-01-08T04:21:32.483Z,13.90
2023-01-08T04:24:00.611Z,13.53
2023-01-08T04:26:28.711Z,15.00
2023-01-08T04:28:57.009Z,14.13
2023-01-08T04:31:25.107Z,14.70
2023-01-08T04:33:54.622Z,14.70
2023-01-08T04:36:22.897Z,16.43
2023-01-08T04:38:51.015Z,13.23
2023-01-08T04:41:19.633Z,16.10
2023-01-08T04:43:47.813Z,17.07
2023-01-08T04:46:16.070Z,14.40
2023-01-08T04:48:44.206Z,15.53
2023-01-08T04:51:13.723Z,14.47
2023-01-08T04:53:42.168Z,12.77
2023-01-08T04:56:12.427Z,12.43
2023-01-08T04:58:41.358Z,12.43
2023-01-08T05:01:15.473Z,14.13
2023-01-08T05:03:43.764Z,12.33
2023-01-08T05:06:13.550Z,12.57
2023-01-08T05:08:41.676Z,13.37
2023-01-08T05:11:09.978Z,12.50
2023-01-08T05:13:38.240Z,14.37
2023-01-08T05:16:07.259Z,15.20
2023-01-08T05:18:35.870Z,13.20
2023-01-08T05:21:06.008Z,15.00
2023-01-08T05:23:35.925Z,13.20
2023-01-08T05:26:07.140Z,15.50
2023-01-08T05:28:35.852Z,15.20
2023-01-08T05:31:04.220Z,14.17
2023-01-08T05:33:32.651Z,16.20
2023-01-08T05:36:00.889Z,15.57
2023-01-08T05:38:29.056Z,14.77
2023-01-08T05:40:58.541Z,14.00
2023-01-08T05:43:26.723Z,13.90
2023-01-08T05:45:54.844Z,13.97
2023-01-08T05:48:22.998Z,14.00
2023-01-08T05:50:51.208Z,14.13
2023-01-08T05:53:19.885Z,12.73
2023-01-08T05:55:48.025Z,14.33
2023-01-08T05:58:19.261Z,14.50
2023-01-08T06:00:47.945Z,17.40
2023-01-08T06:03:16.090Z,14.23
2023-01-08T06:05:44.199Z,16.27
2023-01-08T06:08:12.330Z,12.87
2023-01-08T06:10:40.858Z,14.67
2023-01-08T06:13:09.427Z,13.87
2023-01-08T06:15:40.765Z,16.10
2023-01-08T06:18:09.072Z,16.77
2023-01-08T06:20:37.234Z,13.90
2023-01-08T06:23:05.443Z,13.50
2023-01-08T06:25:36.179Z,13.20
2023-01-08T06:28:04.422Z,11.60
2023-01-08T06:30:32.856Z,13.60
2023-01-08T06:33:02.944Z,12.53
2023-01-08T06:35:31.025Z,12.27
2023-01-08T06:37:59.136Z,11.93
2023-01-08T06:40:27.222Z,13.70
2023-01-08T06:42:55.325Z,13.07
2023-01-08T06:45:23.432Z,14.20
2023-01-08T06:47:51.481Z,10.30
2023-01-08T06:50:21.169Z,11.20
2023-01-08T06:52:54.905Z,13.23
2023-01-08T06:55:24.490Z,10.23
2023-01-08T06:57:55.505Z,11.17
2023-01-08T07:00:25.730Z,12.10
2023-01-08T07:02:54.607Z,11.30
2023-01-08T07:05:24.752Z,12.60
2023-01-08T07:07:52.904Z,10.53
2023-01-08T07:10:21.084Z,12.07
2023-01-08T07:12:49.738Z,11.10
2023-01-08T07:15:18.389Z,10.93
2023-01-08T07:17:46.465Z,11.20
2023-01-08T07:20:14.747Z,11.63
2023-01-08T07:22:44.368Z,10.37
2023-01-08T07:25:13.369Z,11.93
2023-01-08T07:27:41.537Z,11.43
2023-01-08T07:30:20.921Z,9.47
2023-01-08T07:33:00.667Z,10.40
2023-01-08T07:35:29.677Z,10.43
2023-01-08T07:37:59.200Z,10.27
2023-01-08T07:40:27.403Z,13.50
2023-01-08T07:43:00.289Z,9.87
2023-01-08T07:45:28.775Z,10.60
2023-01-08T07:47:59.085Z,11.77
2023-01-08T07:50:28.057Z,11.27
2023-01-08T07:53:00.446Z,9.73
2023-01-08T07:55:30.910Z,10.13
2023-01-08T07:58:00.953Z,9.37
2023-01-08T08:00:29.291Z,13.03
2023-01-08T08:03:02.898Z,10.83
2023-01-08T08:05:31.234Z,11.07
2023-01-08T08:08:00.708Z,10.47
2023-01-08T08:10:29.220Z,9.93
2023-01-08T08:12:57.360Z,10.10
2023-01-08T08:15:25.562Z,8.43
2023-01-08T08:17:54.278Z,10.93
2023-01-08T08:20:25.258Z,11.50
2023-01-08T08:22:53.733Z,9.20
2023-01-08T08:25:23.178Z,11.67
2023-01-08T08:27:51.271Z,10.27
2023-01-08T08:30:19.546Z,11.53
2023-01-08T08:32:47.661Z,11.97
2023-01-08T08:35:16.066Z,10.23
2023-01-08T08:37:44.165Z,12.67
2023-01-08T08:40:12.948Z,10.93
2023-01-08T08:42:42.489Z,8.93
2023-01-08T08:45:11.315Z,9.03
2023-01-08T08:47:39.519Z,9.53
2023-01-08T08:50:09.201Z,9.70
2023-01-08T08:52:38.340Z,10.97
2023-01-08T08:55:07.833Z,8.87
2023-01-08T08:57:35.975Z,9.20
2023-01-08T09:00:06.939Z,8.73
2023-01-08T09:02:35.287Z,8.87
2023-01-08T09:05:03.487Z,9.73
2023-01-08T09:07:31.793Z,8.90
2023-01-08T09:10:00.120Z,8.77
2023-01-08T09:12:28.474Z,11.87
2023-01-08T09:14:57.144Z,8.53
2023-01-08T09:17:26.920Z,9.00
2023-01-08T09:19:55.061Z,12.80
2023-01-08T09:22:23.494Z,10.90
2023-01-08T09:24:51.833Z,12.03
2023-01-08T09:27:19.975Z,9.90
2023-01-08T09:29:50.962Z,10.13
2023-01-08T09:32:19.085Z,7.93
2023-01-08T09:34:48.602Z,10.07
2023-01-08T09:37:16.806Z,9.13
2023-01-08T09:39:51.028Z,9.43
2023-01-08T09:42:28.048Z,9.37
2023-01-08T09:44:59.797Z,7.73
2023-01-08T09:47:33.859Z,7.40
2023-01-08T09:50:09.003Z,7.77
2023-01-08T09:52:39.140Z,7.35
2023-01-08T09:55:15.058Z,8.13
2023-01-08T09:57:43.656Z,8.48
2023-01-08T10:00:17.457Z,7.77
2023-01-08T10:02:46.328Z,9.65
2023-01-08T10:05:18.866Z,8.30
2023-01-08T10:07:47.722Z,10.93
2023-01-08T10:10:23.089Z,6.97
2023-01-08T10:12:52.417Z,6.80
2023-01-08T10:15:23.349Z,7.23
2023-01-08T10:18:01.616Z,9.13
2023-01-08T10:20:32.369Z,8.97
2023-01-08T10:23:12.794Z,10.07
2023-01-08T10:25:54.113Z,9.30
2023-01-08T10:28:25.974Z,10.63
2023-01-08T10:30:59.514Z,8.13
2023-01-08T10:33:38.955Z,9.23
2023-01-08T10:36:14.209Z,9.13
2023-01-08T10:38:51.335Z,7.05
2023-01-08T10:41:20.650Z,7.37
2023-01-08T10:43:58.129Z,7.93
2023-01-08T10:46:31.897Z,6.90
2023-01-08T10:49:03.441Z,7.77
2023-01-08T10:51:34.475Z,7.40
2023-01-08T10:54:16.563Z,7.35
2023-01-08T10:56:46.174Z,9.75
2023-01-08T10:59:20.461Z,7.15
2023-01-08T11:01:50.124Z,6.20
2023-01-08T11:04:28.514Z,8.00
2023-01-08T11:06:59.831Z,7.43
2023-01-08T11:09:33.535Z,6.90
2023-01-08T11:12:02.628Z,6.67
2023-01-08T11:14:35.193Z,8.25
2023-01-08T11:17:11.307Z,7.13
2023-01-08T11:19:40.073Z,7.85
2023-01-08T11:22:21.054Z,9.05
2023-01-08T11:24:51.174Z,8.23
2023-01-08T11:27:29.068Z,7.15
2023-01-08T11:30:06.497Z,7.35
2023-01-08T11:32:47.383Z,7.63
2023-01-08T11:35:20.901Z,6.30
2023-01-08T11:37:55.393Z,7.20
2023-01-08T11:40:38.468Z,7.00
2023-01-08T11:43:32.237Z,7.75
2023-01-08T11:46:25.295Z,7.03
2023-01-08T11:49:22.923Z,9.50
2023-01-08T11:52:14.900Z,8.07
2023-01-08T11:55:24.578Z,7.57
2023-01-08T11:58:24.374Z,7.25
2023-01-08T12:01:26.634Z,6.68
2023-01-08T12:04:21.361Z,8.20
2023-01-08T12:07:00.881Z,7.35
2023-01-08T12:09:41.240Z,8.70
2023-01-08T12:12:26.114Z,8.10
2023-01-08T12:15:13.318Z,7.38
2023-01-08T12:18:16.470Z,7.93
2023-01-08T12:20:55.995Z,8.40
2023-01-08T12:23:47.060Z,9.52
2023-01-08T12:26:24.947Z,7.25
2023-01-08T12:29:28.284Z,8.07
2023-01-08T12:32:36.200Z,6.28
2023-01-08T12:35:14.120Z,7.78
2023-01-08T12:37:52.176Z,6.72
2023-01-08T12:40:27.629Z,7.22
2023-01-08T12:43:02.194Z,7.63
2023-01-08T12:45:38.478Z,6.90
2023-01-08T12:48:12.022Z,8.07
2023-01-08T12:51:00.606Z,7.68
2023-01-08T12:53:44.669Z,6.75
2023-01-08T12:56:19.287Z,6.97
2023-01-08T12:59:19.980Z,6.95
2023-01-08T13:01:59.038Z,8.43
2023-01-08T13:04:27.345Z,7.30
2023-01-08T13:07:05.151Z,8.30
2023-01-08T13:09:34.214Z,6.00
2023-01-08T13:12:02.488Z,6.68
2023-01-08T13:14:43.242Z,6.13
2023-01-08T13:17:24.778Z,6.68
2023-01-08T13:19:56.790Z,6.97
2023-01-08T13:22:28.896Z,7.57
2023-01-08T13:25:32.852Z,8.77
2023-01-08T13:28:02.126Z,6.60
2023-01-08T13:30:40.863Z,6.40
2023-01-08T13:33:41.269Z,6.25
2023-01-08T13:36:24.101Z,5.63
2023-01-08T13:39:06.346Z,5.38
2023-01-08T13:41:37.418Z,5.25
2023-01-08T13:44:14.633Z,6.45
2023-01-08T13:46:44.149Z,7.47
2023-01-08T13:49:27.766Z,8.13
2023-01-08T13:51:56.077Z,6.43
2023-01-08T13:54:36.395Z,7.30
2023-01-08T13:57:13.047Z,6.57
2023-01-08T13:59:48.997Z,7.13
2023-01-08T14:02:27.710Z,7.10
2023-01-08T14:04:58.719Z,6.15
2023-01-08T14:07:27.714Z,8.40
2023-01-08T14:10:07.791Z,7.78
2023-01-08T14:12:36.629Z,6.22
2023-01-08T14:15:11.203Z,9.48
2023-01-08T14:17:39.360Z,8.18
2023-01-08T14:20:13.471Z,8.15
2023-01-08T14:22:43.399Z,6.78
2023-01-08T14:25:20.052Z,7.97
2023-01-08T14:27:58.862Z,7.93
2023-01-08T14:30:28.436Z,8.18
2023-01-08T14:32:58.671Z,7.13
2023-01-08T14:35:35.546Z,5.93
2023-01-08T14:38:05.632Z,5.65
2023-01-08T14:40:40.019Z,5.57
2023-01-08T14:43:12.825Z,5.25
2023-01-08T14:45:48.646Z,5.55
2023-01-08T14:48:23.646Z,6.38
2023-01-08T14:51:05.482Z,6.45
2023-01-08T14:53:37.204Z,6.32
2023-01-08T14:56:08.461Z,7.75
2023-01-08T14:58:40.187Z,7.47
2023-01-08T15:01:16.622Z,6.85
2023-01-08T15:03:47.490Z,7.07
2023-01-08T15:06:29.486Z,6.30
2023-01-08T15:08:58.532Z,9.48
2023-01-08T15:11:31.483Z,6.18
2023-01-08T15:14:01.667Z,7.35
2023-01-08T15:16:33.591Z,7.70
2023-01-08T15:19:07.760Z,7.13
2023-01-08T15:21:38.274Z,7.45
2023-01-08T15:24:09.035Z,6.53
2023-01-08T15:26:43.406Z,6.38
2023-01-08T15:29:21.044Z,5.93
2023-01-08T15:31:50.496Z,7.53
2023-01-08T15:34:21.354Z,6.82
2023-01-08T15:36:50.910Z,6.63
2023-01-08T15:39:19.066Z,7.13
2023-01-08T15:42:05.045Z,6.57
2023-01-08T15:44:33.218Z,6.68
2023-01-08T15:47:01.339Z,7.97
2023-01-08T15:49:29.483Z,9.70
2023-01-08T15:51:59.055Z,6.60
2023-01-08T15:54:27.582Z,8.40
2023-01-08T15:56:55.742Z,6.15
2023-01-08T15:59:23.925Z,8.33
2023-01-08T16:01:52.155Z,8.23
2023-01-08T16:04:20.486Z,7.03
2023-01-08T16:06:51.903Z,5.10
2023-01-08T16:09:21.469Z,5.68
2023-01-08T16:11:50.307Z,5.43
2023-01-08T16:14:18.417Z,6.18
2023-01-08T16:16:46.699Z,6.10
2023-01-08T16:19:14.879Z,7.28
2023-01-08T16:21:46.890Z,5.28
2023-01-08T16:24:15.426Z,4.53
2023-01-08T16:26:44.968Z,5.20
2023-01-08T16:29:13.157Z,4.67
2023-01-08T16:31:46.001Z,6.90
2023-01-08T16:34:15.753Z,4.75
2023-01-08T16:36:44.069Z,7.77
2023-01-08T16:39:12.364Z,5.00
2023-01-08T16:41:40.528Z,4.50
2023-01-08T16:44:26.237Z,6.97
2023-01-08T16:46:56.199Z,4.78
2023-01-08T16:49:24.421Z,4.63
2023-01-08T16:51:52.567Z,4.97
2023-01-08T16:54:21.635Z,6.80
2023-01-08T16:56:49.870Z,6.68
2023-01-08T16:59:23.805Z,6.95
2023-01-08T17:01:52.454Z,8.18
2023-01-08T17:04:21.009Z,9.30
2023-01-08T17:06:49.966Z,6.63
2023-01-08T17:09:18.268Z,8.97
2023-01-08T17:11:47.646Z,9.27
2023-01-08T17:14:16.078Z,8.83
2023-01-08T17:16:47.417Z,7.18
2023-01-08T17:19:16.280Z,7.63
2023-01-08T17:21:45.802Z,5.67
2023-01-08T17:24:14.150Z,6.60
2023-01-08T17:26:42.507Z,6.50
2023-01-08T17:29:10.798Z,5.97
2023-01-08T17:31:40.568Z,8.55
2023-01-08T17:34:14.680Z,5.93
2023-01-08T17:36:42.920Z,6.25
2023-01-08T17:39:12.450Z,5.72
2023-01-08T17:41:58.307Z,6.30
2023-01-08T17:44:27.339Z,5.20
2023-01-08T17:46:55.593Z,5.13
2023-01-08T17:49:25.238Z,6.27
2023-01-08T17:51:53.732Z,6.13
2023-01-08T17:54:24.086Z,5.43
2023-01-08T17:56:53.589Z,5.85
2023-01-08T17:59:22.470Z,6.47
2023-01-08T18:01:53.378Z,7.05
2023-01-08T18:04:21.893Z,9.52
2023-01-08T18:06:51.360Z,9.60
2023-01-08T18:09:19.878Z,11.02
2023-01-08T18:11:48.190Z,13.03
2023-01-08T18:14:16.347Z,10.25
2023-01-08T18:16:45.517Z,24.03
2023-01-08T18:19:16.636Z,19.27
2023-01-08T18:21:45.644Z,17.20
2023-01-08T18:24:16.520Z,19.97
2023-01-08T18:26:46.366Z,17.87
2023-01-08T18:29:14.715Z,15.97
2023-01-08T18:31:45.050Z,16.33
2023-01-08T18:34:15.068Z,25.13
2023-01-08T18:36:43.918Z,11.47
2023-01-08T18:39:14.889Z,18.47
2023-01-08T18:42:00.898Z,21.53
2023-01-08T18:44:29.337Z,13.05
2023-01-08T18:46:57.470Z,11.13
2023-01-08T18:49:27.495Z,11.90
2023-01-08T18:51:55.901Z,10.30
2023-01-08T18:54:28.049Z,12.70
2023-01-08T18:56:56.253Z,11.23
2023-01-08T18:59:24.591Z,11.70
2023-01-08T19:01:53.269Z,10.23
2023-01-08T19:04:21.500Z,11.85
2023-01-08T19:06:49.869Z,9.57
2023-01-08T19:09:18.182Z,11.50
2023-01-08T19:11:47.851Z,26.67
2023-01-08T19:14:16.030Z,14.13
2023-01-08T19:16:49.403Z,20.10
2023-01-08T19:19:17.670Z,19.97
2023-01-08T19:21:45.907Z,15.47
2023-01-08T19:24:15.008Z,23.13
2023-01-08T19:26:43.249Z,446.67
2023-01-08T19:29:13.202Z,113.27
2023-01-08T19:31:41.517Z,289.07
2023-01-08T19:34:12.088Z,517.33
2023-01-08T19:36:42.342Z,302.67
2023-01-08T19:39:12.055Z,133.53
2023-01-08T19:41:58.475Z,41.97
2023-01-08T19:44:28.020Z,41.10
2023-01-08T19:46:56.269Z,23.67
2023-01-08T19:49:25.576Z,22.60
2023-01-08T19:51:53.755Z,13.43
2023-01-08T19:54:25.682Z,27.37
2023-01-08T19:56:54.001Z,18.17
2023-01-08T19:59:22.933Z,15.70
2023-01-08T20:01:52.744Z,11.53
2023-01-08T20:04:21.379Z,64.07
2023-01-08T20:06:49.705Z,101.13
2023-01-08T20:09:17.829Z,149.80
2023-01-08T20:11:46.338Z,128.83
2023-01-08T20:14:14.504Z,36.67
2023-01-08T20:16:42.709Z,80.30
2023-01-08T20:19:12.231Z,26.10
2023-01-08T20:21:40.494Z,65.78
2023-01-08T20:24:12.023Z,30.10
2023-01-08T20:26:41.428Z,21.90
2023-01-08T20:29:10.121Z,15.90
2023-01-08T20:31:39.966Z,16.27
2023-01-08T20:34:15.264Z,12.33
2023-01-08T20:36:45.246Z,11.30
2023-01-08T20:39:15.955Z,12.10
2023-01-08T20:41:50.383Z,11.60
2023-01-08T20:44:32.044Z,11.17
2023-01-08T20:47:00.893Z,9.13
2023-01-08T20:49:30.444Z,11.90
2023-01-08T20:52:00.037Z,12.77
2023-01-08T20:54:30.066Z,11.60
2023-01-08T20:57:00.385Z,11.37
2023-01-08T20:59:29.603Z,12.97
2023-01-08T21:01:58.134Z,10.30
2023-01-08T21:04:26.386Z,9.63
2023-01-08T21:06:56.019Z,10.97
2023-01-08T21:09:24.213Z,13.73
2023-01-08T21:11:52.419Z,11.43
2023-01-08T21:14:20.776Z,12.57
2023-01-08T21:16:48.978Z,12.43
2023-01-08T21:19:17.096Z,10.37
2023-01-08T21:21:45.749Z,10.93
2023-01-08T21:24:15.430Z,10.90
2023-01-08T21:26:46.894Z,10.97
2023-01-08T21:29:16.907Z,10.10
2023-01-08T21:31:45.152Z,10.30
2023-01-08T21:34:13.956Z,12.50
2023-01-08T21:36:42.155Z,12.97
2023-01-08T21:39:11.936Z,10.93
2023-01-08T21:41:59.117Z,11.63
2023-01-08T21:44:45.812Z,11.47
2023-01-08T21:47:17.607Z,12.57
2023-01-08T21:49:46.728Z,10.63
2023-01-08T21:52:33.028Z,12.43
2023-01-08T21:55:01.510Z,11.87
2023-01-08T21:57:31.123Z,10.07
2023-01-08T21:59:59.331Z,11.20
2023-01-08T22:02:27.605Z,13.83
2023-01-08T22:04:57.258Z,8.40
2023-01-08T22:07:25.945Z,11.07
2023-01-08T22:09:54.511Z,10.63
2023-01-08T22:12:24.192Z,10.80
2023-01-08T22:14:55.990Z,8.77
2023-01-08T22:17:26.652Z,10.15
2023-01-08T22:19:54.889Z,10.83
2023-01-08T22:22:23.006Z,10.23
2023-01-08T22:24:52.156Z,9.65
2023-01-08T22:27:20.845Z,10.87
2023-01-08T22:29:49.043Z,13.47
2023-01-08T22:32:18.751Z,13.33
2023-01-08T22:34:46.972Z,10.87
2023-01-08T22:37:16.830Z,11.27
2023-01-08T22:39:46.481Z,10.27
2023-01-08T22:42:14.608Z,11.20
2023-01-08T22:44:42.784Z,11.27
2023-01-08T22:47:10.970Z,10.70
2023-01-08T22:49:40.462Z,12.03
2023-01-08T22:52:09.833Z,12.10
2023-01-08T22:54:39.090Z,12.45
2023-01-08T22:57:07.718Z,10.83
2023-01-08T22:59:36.259Z,10.30
2023-01-08T23:02:04.409Z,11.07
2023-01-08T23:04:32.634Z,12.20
2023-01-08T23:07:02.112Z,12.43
2023-01-08T23:09:30.282Z,10.83
2023-01-08T23:11:58.377Z,11.47
2023-01-08T23:14:26.500Z,12.67
2023-01-08T23:16:54.613Z,14.20
2023-01-08T23:19:22.728Z,13.80
2023-01-08T23:21:50.953Z,13.13
2023-01-08T23:24:20.435Z,12.87
2023-01-08T23:26:48.623Z,13.60
2023-01-08T23:29:16.768Z,14.97
2023-01-08T23:31:45.015Z,13.93
2023-01-08T23:34:13.320Z,15.83
2023-01-08T23:36:42.922Z,14.63
2023-01-08T23:39:11.832Z,15.07
2023-01-08T23:41:41.425Z,15.90
2023-01-08T23:44:15.301Z,12.23
2023-01-08T23:46:43.606Z,15.93
2023-01-08T23:49:11.768Z,14.23
2023-01-08T23:51:42.111Z,12.80
2023-01-08T23:54:11.196Z,14.30
2023-01-08T23:56:41.296Z,14.60
2023-01-08T23:59:09.793Z,15.10
